createdAt,value
2023-04-12T00:01:27.759Z,78.63
2023-04-12T00:03:57.321Z,78.80
2023-04-12T00:06:32.337Z,78.16
2023-04-12T00:09:02.001Z,78.53
2023-04-12T00:11:29.765Z,79.51
2023-04-12T00:13:57.498Z,80.91
2023-04-12T00:16:25.536Z,82.07
2023-04-12T00:18:53.121Z,82.51
2023-04-12T00:21:20.709Z,82.04
2023-04-12T00:23:49.407Z,82.09
2023-04-12T00:26:18.295Z,83.26
2023-04-12T00:28:46.489Z,83.71
2023-04-12T00:31:14.232Z,80.73
2023-04-12T00:33:41.826Z,82.08
2023-04-12T00:36:10.042Z,82.94
2023-04-12T00:38:37.673Z,81.67
2023-04-12T00:41:05.716Z,81.66
2023-04-12T00:43:35.579Z,82.36
2023-04-12T00:46:03.942Z,81.75
2023-04-12T00:48:32.463Z,82.22
2023-04-12T00:51:01.411Z,83.92
2023-04-12T00:53:29.249Z,84.94
2023-04-12T00:55:57.595Z,85.32
2023-04-12T00:58:25.540Z,84.33
2023-04-12T01:00:55.656Z,84.13
2023-04-12T01:03:24.230Z,84.96
2023-04-12T01:06:02.226Z,85.39
2023-04-12T01:08:45.264Z,86.22
2023-04-12T01:11:19.870Z,86.98
2023-04-12T01:13:56.913Z,88.39
2023-04-12T01:16:32.817Z,89.99
2023-04-12T01:19:05.300Z,91.52
2023-04-12T01:21:46.137Z,91.68
2023-04-12T01:24:28.986Z,91.91
2023-04-12T01:27:00.532Z,91.83
2023-04-12T01:29:31.321Z,92.19
2023-04-12T01:32:01.237Z,92.82
2023-04-12T01:34:32.011Z,92.19
2023-04-12T01:37:02.951Z,92.62
2023-04-12T01:39:32.362Z,93.48
2023-04-12T01:46:08.268Z,94.71
2023-04-12T01:48:36.396Z,94.42
2023-04-12T01:51:07.639Z,94.41
2023-04-12T01:53:45.882Z,93.91
2023-04-12T01:56:15.752Z,93.61
2023-04-12T01:58:47.468Z,93.50
2023-04-12T02:01:17.136Z,93.87
2023-04-12T02:03:49.645Z,94.23
2023-04-12T02:06:20.740Z,94.68
2023-04-12T02:08:49.081Z,94.96
2023-04-12T02:11:17.465Z,95.38
2023-04-12T02:13:45.639Z,95.60
2023-04-12T02:16:13.934Z,95.16
2023-04-12T02:18:42.887Z,95.15
2023-04-12T02:21:15.380Z,94.53
2023-04-12T02:23:43.987Z,94.14
2023-04-12T02:26:12.692Z,94.34
2023-04-12T02:28:41.490Z,94.45
2023-04-12T02:31:13.177Z,95.67
2023-04-12T02:33:43.170Z,96.15
2023-04-12T02:36:12.225Z,95.75
2023-04-12T02:38:40.935Z,96.58
2023-04-12T02:41:08.934Z,96.49
2023-04-12T02:43:37.620Z,96.87
2023-04-12T02:46:09.736Z,96.59
2023-04-12T02:48:45.143Z,96.82
2023-04-12T02:51:13.713Z,97.18
2023-04-12T02:53:43.064Z,97.43
2023-04-12T02:56:19.036Z,96.25
2023-04-12T02:58:49.882Z,96.83
2023-04-12T03:01:28.079Z,96.98
2023-04-12T03:04:16.302Z,97.18
2023-04-12T03:06:53.793Z,97.17
2023-04-12T03:09:32.154Z,96.96
2023-04-12T03:12:00.109Z,96.02
2023-04-12T03:14:27.845Z,95.68
2023-04-12T03:16:56.396Z,95.57
2023-04-12T03:19:25.583Z,95.92
2023-04-12T03:21:57.077Z,96.41
2023-04-12T03:24:26.583Z,96.34
2023-04-12T03:26:54.662Z,95.55
2023-04-12T03:29:25.817Z,94.91
2023-04-12T03:31:55.976Z,94.61
2023-04-12T03:34:27.844Z,95.30
2023-04-12T03:36:56.464Z,95.29
2023-04-12T03:39:37.626Z,95.60
2023-04-12T03:42:21.621Z,95.04
2023-04-12T03:44:57.927Z,95.17
2023-04-12T03:47:26.851Z,95.53
2023-04-12T03:50:11.475Z,96.37
2023-04-12T03:52:43.381Z,96.28
2023-04-12T03:55:12.235Z,95.62
2023-04-12T03:57:40.019Z,95.99
2023-04-12T04:00:09.828Z,95.86
2023-04-12T04:02:47.267Z,95.45
2023-04-12T04:05:18.769Z,95.19
2023-04-12T04:07:47.068Z,95.59
2023-04-12T04:10:16.439Z,95.16
2023-04-12T04:12:45.989Z,95.26
2023-04-12T04:15:15.457Z,95.30
2023-04-12T04:17:43.362Z,95.82
2023-04-12T04:20:13.624Z,95.36
2023-04-12T04:22:48.128Z,95.43
2023-04-12T04:25:19.952Z,95.21
2023-04-12T04:27:53.063Z,95.91
2023-04-12T04:30:23.977Z,96.31
2023-04-12T04:32:51.733Z,96.81
2023-04-12T04:35:24.193Z,97.04
2023-04-12T04:38:04.736Z,97.25
2023-04-12T04:40:33.602Z,96.85
2023-04-12T04:43:09.775Z,96.58
2023-04-12T04:45:41.398Z,97.02
2023-04-12T04:48:09.117Z,96.59
2023-04-12T04:50:36.703Z,95.68
2023-04-12T04:53:06.506Z,96.26
2023-04-12T04:55:35.657Z,96.61
2023-04-12T04:58:03.409Z,96.47
2023-04-12T05:00:31.218Z,96.34
2023-04-12T05:03:00.474Z,96.65
2023-04-12T05:05:30.329Z,96.58
2023-04-12T05:08:06.794Z,96.66
2023-04-12T05:10:36.148Z,96.15
2023-04-12T05:13:06.443Z,96.08
2023-04-12T05:15:34.980Z,96.50
2023-04-12T05:18:02.698Z,96.04
2023-04-12T05:20:31.809Z,96.44
2023-04-12T05:22:59.519Z,96.56
2023-04-12T05:25:28.509Z,97.12
2023-04-12T05:28:04.200Z,96.87
2023-04-12T05:30:31.785Z,97.14
2023-04-12T05:32:59.992Z,96.70
2023-04-12T05:35:28.012Z,97.05
2023-04-12T05:38:00.150Z,97.11
2023-04-12T05:40:31.515Z,96.36
2023-04-12T05:42:59.881Z,96.16
2023-04-12T05:45:30.022Z,96.34
2023-04-12T05:47:58.158Z,96.27
2023-04-12T05:50:26.130Z,95.90
2023-04-12T05:52:53.826Z,96.35
2023-04-12T05:55:28.962Z,96.20
2023-04-12T05:57:57.533Z,95.65
2023-04-12T06:00:27.921Z,95.34
2023-04-12T06:02:57.079Z,94.59
2023-04-12T06:05:25.200Z,94.86
2023-04-12T06:07:52.795Z,94.15
2023-04-12T06:10:20.615Z,94.85
2023-04-12T06:12:54.223Z,95.25
2023-04-12T06:15:22.213Z,95.43
2023-04-12T06:17:55.089Z,94.75
2023-04-12T06:20:22.758Z,95.81
2023-04-12T06:22:50.789Z,95.72
2023-04-12T06:25:18.500Z,96.05
2023-04-12T06:27:48.121Z,95.00
2023-04-12T06:30:19.764Z,94.87
2023-04-12T06:32:48.199Z,95.17
2023-04-12T06:35:16.841Z,94.96
2023-04-12T06:37:44.800Z,95.27
2023-04-12T06:40:12.645Z,95.48
2023-04-12T06:42:41.502Z,95.13
2023-04-12T06:45:11.813Z,96.01
2023-04-12T06:47:41.640Z,96.00
2023-04-12T06:50:10.044Z,95.64
2023-04-12T06:52:37.804Z,95.79
2023-04-12T06:55:06.346Z,94.94
2023-04-12T06:57:34.116Z,93.99
2023-04-12T07:00:02.045Z,94.41
2023-04-12T07:02:29.736Z,94.04
2023-04-12T07:04:58.719Z,94.76
2023-04-12T07:07:26.325Z,94.34
2023-04-12T07:09:53.965Z,94.13
2023-04-12T07:12:21.583Z,94.26
2023-04-12T07:14:49.293Z,94.75
2023-04-12T07:17:16.833Z,94.34
2023-04-12T07:19:44.523Z,93.74
2023-04-12T07:22:14.211Z,94.35
2023-04-12T07:24:42.028Z,93.49
2023-04-12T07:27:11.098Z,92.83
2023-04-12T07:29:38.807Z,93.06
2023-04-12T07:32:07.007Z,92.78
2023-04-12T07:34:34.635Z,93.49
2023-04-12T07:37:02.308Z,92.33
2023-04-12T07:39:31.771Z,92.22
2023-04-12T07:41:59.444Z,92.91
2023-04-12T07:44:27.059Z,92.80
2023-04-12T07:46:54.628Z,92.65
2023-04-12T07:49:22.250Z,92.22
2023-04-12T07:51:49.871Z,89.85
2023-04-12T07:54:17.446Z,90.09
2023-04-12T07:57:00.497Z,91.30
2023-04-12T07:59:28.109Z,91.13
2023-04-12T08:01:55.712Z,91.07
2023-04-12T08:04:23.475Z,91.31
2023-04-12T08:06:51.224Z,91.30
2023-04-12T08:09:18.766Z,91.22
2023-04-12T08:11:47.183Z,90.48
2023-04-12T08:14:16.095Z,91.15
2023-04-12T08:16:43.660Z,92.55
2023-04-12T08:19:11.873Z,92.73
2023-04-12T08:21:39.947Z,93.33
2023-04-12T08:24:09.050Z,93.19
2023-04-12T08:26:36.698Z,92.24
2023-04-12T08:29:04.294Z,91.30
2023-04-12T08:31:33.800Z,90.89
2023-04-12T08:34:01.372Z,89.39
2023-04-12T08:36:29.194Z,88.03
2023-04-12T08:38:59.707Z,87.27
2023-04-12T08:41:28.560Z,87.83
2023-04-12T08:43:56.548Z,87.82
2023-04-12T08:46:24.528Z,84.62
2023-04-12T08:48:55.264Z,85.39
2023-04-12T08:51:23.117Z,86.23
2023-04-12T08:53:50.945Z,86.12
2023-04-12T08:56:18.839Z,86.70
2023-04-12T08:58:48.855Z,87.81
2023-04-12T09:01:17.874Z,88.57
2023-04-12T09:03:47.057Z,88.22
2023-04-12T09:06:16.254Z,88.22
2023-04-12T09:08:53.173Z,88.79
2023-04-12T09:11:25.329Z,88.02
2023-04-12T09:13:53.365Z,85.42
2023-04-12T09:16:36.033Z,87.03
2023-04-12T09:19:03.782Z,85.94
2023-04-12T09:21:34.476Z,86.47
2023-04-12T09:24:11.022Z,87.27
2023-04-12T09:26:40.433Z,84.12
2023-04-12T09:29:24.024Z,85.33
2023-04-12T09:31:56.855Z,85.00
2023-04-12T09:34:25.988Z,84.69
2023-04-12T09:36:57.635Z,84.06
2023-04-12T09:39:34.823Z,82.70
2023-04-12T09:42:10.502Z,82.31
2023-04-12T09:44:43.323Z,84.07
2023-04-12T09:47:10.961Z,84.94
2023-04-12T09:49:40.145Z,84.13
2023-04-12T09:52:10.911Z,82.08
2023-04-12T09:54:40.254Z,83.27
2023-04-12T09:57:09.086Z,83.60
2023-04-12T09:59:38.996Z,83.16
2023-04-12T10:02:15.751Z,83.20
2023-04-12T10:04:43.902Z,83.43
2023-04-12T10:07:14.980Z,83.73
2023-04-12T10:09:43.222Z,83.68
2023-04-12T10:12:11.117Z,83.57
2023-04-12T10:14:39.177Z,81.95
2023-04-12T10:17:09.655Z,81.17
2023-04-12T10:19:39.331Z,83.48
2023-04-12T10:22:07.972Z,81.72
2023-04-12T10:24:36.999Z,82.30
2023-04-12T10:27:04.785Z,82.68
2023-04-12T10:29:34.587Z,82.79
2023-04-12T10:32:21.094Z,81.17
2023-04-12T10:34:52.774Z,82.17
2023-04-12T10:37:20.862Z,80.42
2023-04-12T10:39:54.465Z,79.69
2023-04-12T10:42:24.449Z,79.42
2023-04-12T10:44:53.163Z,80.90
2023-04-12T10:48:01.683Z,78.55
2023-04-12T10:50:31.412Z,79.54
2023-04-12T10:53:27.408Z,78.40
2023-04-12T10:55:56.407Z,76.67
2023-04-12T10:58:59.035Z,77.03
2023-04-12T11:01:30.728Z,77.05
2023-04-12T11:04:17.032Z,75.00
2023-04-12T11:07:04.661Z,73.26
2023-04-12T11:09:41.282Z,73.82
2023-04-12T11:12:15.009Z,73.90
2023-04-12T11:14:46.906Z,72.40
2023-04-12T11:17:24.915Z,72.02
2023-04-12T11:20:00.494Z,71.04
2023-04-12T11:22:30.155Z,69.71
2023-04-12T11:24:59.556Z,68.57
2023-04-12T11:27:29.751Z,67.48
2023-04-12T11:29:58.950Z,63.99
2023-04-12T11:32:27.946Z,64.53
2023-04-12T11:34:57.242Z,64.67
2023-04-12T11:37:26.933Z,64.01
2023-04-12T11:39:57.908Z,63.13
2023-04-12T11:42:26.975Z,63.14
2023-04-12T11:44:59.794Z,61.92
2023-04-12T11:47:28.485Z,59.62
2023-04-12T11:49:58.200Z,60.22
2023-04-12T11:52:29.519Z,60.18
2023-04-12T11:54:58.866Z,59.77
2023-04-12T11:57:28.680Z,59.25
2023-04-12T11:59:59.882Z,60.16
2023-04-12T12:02:33.088Z,58.87
2023-04-12T12:05:06.925Z,59.76
2023-04-12T12:07:35.815Z,59.10
2023-04-12T12:10:03.806Z,58.66
2023-04-12T12:12:31.424Z,57.91
2023-04-12T12:15:02.701Z,57.49
2023-04-12T12:17:30.449Z,56.80
2023-04-12T12:19:59.335Z,55.79
2023-04-12T12:22:27.167Z,54.94
2023-04-12T12:24:57.769Z,54.80
2023-04-12T12:27:26.944Z,54.35
2023-04-12T12:29:55.772Z,53.64
2023-04-12T12:32:24.837Z,52.21
2023-04-12T12:34:54.471Z,52.35
2023-04-12T12:37:25.357Z,53.69
2023-04-12T12:40:07.355Z,52.25
2023-04-12T12:42:36.161Z,50.95
2023-04-12T12:45:04.566Z,51.80
2023-04-12T12:47:34.052Z,51.08
2023-04-12T12:50:01.736Z,51.13
2023-04-12T12:52:29.285Z,54.05
2023-04-12T12:54:56.890Z,54.28
2023-04-12T12:57:24.443Z,51.73
2023-04-12T12:59:52.044Z,49.42
2023-04-12T13:02:19.852Z,49.91
2023-04-12T13:04:49.242Z,50.91
2023-04-12T13:07:16.934Z,52.68
2023-04-12T13:09:46.240Z,51.14
2023-04-12T13:12:15.703Z,48.50
2023-04-12T13:14:43.228Z,49.23
2023-04-12T13:17:10.991Z,47.52
2023-04-12T13:19:38.600Z,47.68
2023-04-12T13:22:08.156Z,49.32
2023-04-12T13:24:36.112Z,46.53
2023-04-12T13:27:03.803Z,47.19
2023-04-12T13:29:31.391Z,47.39
2023-04-12T13:31:59.011Z,45.62
2023-04-12T13:34:27.235Z,44.72
2023-04-12T13:36:54.784Z,42.02
2023-04-12T13:39:23.749Z,41.94
2023-04-12T13:41:51.504Z,43.37
2023-04-12T13:44:19.154Z,43.06
2023-04-12T13:46:46.722Z,43.13
2023-04-12T13:49:14.444Z,41.85
2023-04-12T13:51:42.104Z,40.80
2023-04-12T13:54:09.729Z,39.73
2023-04-12T13:56:38.590Z,40.36
2023-04-12T13:59:06.177Z,42.97
2023-04-12T14:01:33.867Z,43.21
2023-04-12T14:04:01.673Z,45.51
2023-04-12T14:06:30.010Z,46.96
2023-04-12T14:08:57.815Z,49.54
2023-04-12T14:11:25.902Z,50.63
2023-04-12T14:13:55.195Z,51.63
2023-04-12T14:16:22.849Z,51.59
2023-04-12T14:18:50.383Z,53.75
2023-04-12T14:21:17.958Z,55.75
2023-04-12T14:23:45.505Z,56.56
2023-04-12T14:26:16.194Z,59.50
2023-04-12T14:28:43.754Z,63.90
2023-04-12T14:31:14.772Z,67.89
2023-04-12T14:33:42.710Z,73.23
2023-04-12T14:36:10.746Z,75.15
2023-04-12T14:38:38.337Z,82.41
2023-04-12T14:41:08.730Z,87.77
2023-04-12T14:43:36.342Z,90.82
2023-04-12T14:46:04.025Z,93.97
2023-04-12T14:48:33.035Z,95.78
2023-04-12T14:51:00.671Z,96.14
2023-04-12T14:53:28.254Z,96.11
2023-04-12T14:55:55.891Z,96.52
2023-04-12T14:58:23.622Z,96.40
2023-04-12T15:00:51.372Z,97.89
2023-04-12T15:03:20.914Z,98.09
2023-04-12T15:05:50.094Z,96.92
2023-04-12T15:08:17.998Z,96.50
2023-04-12T15:10:45.796Z,95.69
2023-04-12T15:13:13.487Z,93.14
2023-04-12T15:15:41.652Z,92.70
2023-04-12T15:18:10.406Z,93.09
2023-04-12T15:20:38.126Z,90.68
2023-04-12T15:23:07.513Z,91.06
2023-04-12T15:25:35.205Z,89.15
2023-04-12T15:28:03.007Z,90.25
2023-04-12T15:30:31.723Z,89.03
2023-04-12T15:32:59.540Z,85.26
2023-04-12T15:35:27.536Z,83.09
2023-04-12T15:37:55.632Z,83.79
2023-04-12T15:40:24.899Z,82.56
2023-04-12T15:42:52.534Z,83.40
2023-04-12T15:45:20.112Z,80.36
2023-04-12T15:47:47.668Z,81.17
2023-04-12T15:50:15.306Z,79.11
2023-04-12T15:52:44.153Z,77.62
2023-04-12T15:55:12.556Z,76.45
2023-04-12T15:57:42.086Z,77.61
2023-04-12T16:00:21.006Z,78.82
2023-04-12T16:02:53.534Z,78.30
2023-04-12T16:05:21.584Z,78.76
2023-04-12T16:07:50.916Z,79.43
2023-04-12T16:10:21.008Z,76.74
2023-04-12T16:12:50.880Z,76.45
2023-04-12T16:15:19.992Z,76.14
2023-04-12T16:17:48.151Z,76.10
2023-04-12T16:20:18.625Z,75.47
2023-04-12T16:22:47.068Z,75.33
2023-04-12T16:25:14.730Z,73.72
2023-04-12T16:27:42.366Z,73.94
2023-04-12T16:30:12.772Z,74.26
2023-04-12T16:32:40.581Z,75.03
2023-04-12T16:35:08.880Z,74.11
2023-04-12T16:37:38.703Z,74.13
2023-04-12T16:40:09.550Z,74.34
2023-04-12T16:42:37.143Z,74.46
2023-04-12T16:45:05.446Z,75.09
2023-04-12T16:47:35.436Z,75.14
2023-04-12T16:50:03.574Z,73.61
2023-04-12T16:52:31.636Z,73.57
2023-04-12T16:55:00.515Z,72.99
2023-04-12T16:57:28.330Z,73.06
2023-04-12T16:59:57.168Z,72.11
2023-04-12T17:02:25.858Z,71.30
2023-04-12T17:04:55.425Z,71.62
2023-04-12T17:07:23.006Z,71.33
2023-04-12T17:09:50.639Z,71.16
2023-04-12T17:12:18.170Z,71.86
2023-04-12T17:14:45.702Z,71.35
2023-04-12T17:17:13.545Z,71.04
2023-04-12T17:19:44.225Z,72.75
2023-04-12T17:22:13.720Z,73.78
2023-04-12T17:24:42.199Z,71.67
2023-04-12T17:27:09.794Z,71.33
2023-04-12T17:29:37.552Z,70.91
2023-04-12T17:32:05.097Z,71.22
2023-04-12T17:34:33.850Z,70.77
2023-04-12T17:37:01.543Z,69.24
2023-04-12T17:39:30.488Z,68.00
2023-04-12T17:41:58.129Z,66.08
2023-04-12T17:44:26.356Z,65.21
2023-04-12T17:46:53.944Z,62.98
2023-04-12T17:49:22.267Z,64.60
2023-04-12T17:51:49.868Z,63.87
2023-04-12T17:54:17.496Z,65.41
2023-04-12T17:56:49.117Z,67.02
2023-04-12T17:59:16.745Z,68.83
2023-04-12T18:01:44.453Z,69.93
2023-04-12T18:04:12.201Z,70.61
2023-04-12T18:06:40.092Z,71.38
2023-04-12T18:09:08.852Z,71.97
2023-04-12T18:11:38.762Z,72.75
2023-04-12T18:14:07.690Z,73.12
2023-04-12T18:16:35.588Z,74.11
2023-04-12T18:19:04.277Z,75.79
2023-04-12T18:21:32.283Z,76.35
2023-04-12T18:24:02.204Z,76.24
2023-04-12T18:26:30.575Z,77.42
2023-04-12T18:28:58.410Z,78.36
2023-04-12T18:31:27.582Z,78.88
2023-04-12T18:33:55.323Z,79.06
2023-04-12T18:36:22.902Z,79.19
2023-04-12T18:38:50.675Z,79.31
2023-04-12T18:41:18.263Z,79.67
2023-04-12T18:43:46.519Z,79.26
2023-04-12T18:46:16.366Z,79.49
2023-04-12T18:48:47.824Z,79.79
2023-04-12T18:51:19.852Z,80.68
2023-04-12T18:53:49.159Z,81.64
2023-04-12T18:56:22.821Z,80.79
2023-04-12T18:58:55.699Z,81.35
2023-04-12T19:01:23.986Z,82.10
2023-04-12T19:03:53.168Z,82.19
2023-04-12T19:06:21.224Z,81.99
2023-04-12T19:08:49.737Z,81.29
2023-04-12T19:11:17.297Z,81.17
2023-04-12T19:13:44.889Z,81.57
2023-04-12T19:16:12.723Z,81.83
2023-04-12T19:18:40.371Z,82.94
2023-04-12T19:21:09.835Z,84.15
2023-04-12T19:23:38.031Z,84.64
2023-04-12T19:26:05.896Z,84.50
2023-04-12T19:28:33.454Z,85.41
2023-04-12T19:31:05.158Z,84.64
2023-04-12T19:33:32.733Z,84.36
2023-04-12T19:36:00.282Z,84.41
2023-04-12T19:38:29.174Z,84.37
2023-04-12T19:40:56.794Z,84.81
2023-04-12T19:43:25.620Z,86.18
2023-04-12T19:45:53.434Z,90.32
2023-04-12T19:48:21.079Z,94.52
2023-04-12T19:50:49.056Z,97.63
2023-04-12T19:53:18.047Z,100.00
2023-04-12T19:55:46.921Z,100.00
2023-04-12T19:58:14.564Z,98.82
2023-04-12T20:00:42.215Z,98.86
2023-04-12T20:03:10.205Z,98.32
2023-04-12T20:05:38.423Z,97.87
2023-04-12T20:08:06.069Z,98.76
2023-04-12T20:10:33.604Z,100.00
2023-04-12T20:13:04.050Z,99.14
2023-04-12T20:15:31.972Z,99.21
2023-04-12T20:17:59.521Z,100.00
2023-04-12T20:20:27.245Z,100.00
2023-04-12T20:22:57.661Z,100.00
2023-04-12T20:25:25.764Z,100.00
2023-04-12T20:27:53.875Z,100.00
2023-04-12T20:30:24.122Z,100.00
2023-04-12T20:32:54.322Z,100.00
2023-04-12T20:35:22.781Z,100.00
2023-04-12T20:37:51.201Z,100.00
2023-04-12T20:40:19.137Z,100.00
2023-04-12T20:42:46.866Z,100.00
2023-04-12T20:45:16.801Z,100.00
2023-04-12T20:47:45.899Z,100.00
2023-04-12T20:50:13.546Z,100.00
2023-04-12T20:52:41.194Z,100.00
2023-04-12T20:55:11.015Z,100.00
2023-04-12T20:57:38.773Z,100.00
2023-04-12T21:00:13.247Z,100.00
2023-04-12T21:02:40.928Z,100.00
2023-04-12T21:05:10.390Z,100.00
2023-04-12T21:07:37.987Z,100.00
2023-04-12T21:10:06.760Z,100.00
2023-04-12T21:12:35.368Z,100.00
2023-04-12T21:15:03.318Z,100.00
2023-04-12T21:17:30.946Z,100.00
2023-04-12T21:19:59.130Z,100.00
2023-04-12T21:22:28.365Z,100.00
2023-04-12T21:24:55.884Z,100.00
2023-04-12T21:27:23.973Z,100.00
2023-04-12T21:29:51.513Z,100.00
2023-04-12T21:32:19.173Z,100.00
2023-04-12T21:34:47.350Z,100.00
2023-04-12T21:37:14.924Z,100.00
2023-04-12T21:39:44.422Z,100.00
2023-04-12T21:42:12.026Z,100.00
2023-04-12T21:44:42.424Z,100.00
2023-04-12T21:47:10.102Z,100.00
2023-04-12T21:49:37.689Z,100.00
2023-04-12T21:52:05.536Z,100.00
2023-04-12T21:54:36.725Z,100.00
2023-04-12T21:57:06.149Z,100.00
2023-04-12T21:59:34.083Z,100.00
2023-04-12T22:02:01.861Z,99.82
2023-04-12T22:04:29.582Z,99.48
2023-04-12T22:06:58.055Z,96.14
2023-04-12T22:09:27.099Z,96.45
2023-04-12T22:11:54.823Z,96.97
2023-04-12T22:14:24.763Z,97.69
2023-04-12T22:16:53.050Z,95.76
2023-04-12T22:19:20.679Z,96.69
2023-04-12T22:21:49.050Z,97.35
2023-04-12T22:24:16.771Z,96.84
2023-04-12T22:26:46.493Z,93.57
2023-04-12T22:29:17.656Z,92.89
2023-04-12T22:31:47.152Z,92.62
2023-04-12T22:34:15.192Z,92.94
2023-04-12T22:36:42.911Z,93.09
2023-04-12T22:39:11.321Z,93.71
2023-04-12T22:41:38.902Z,94.20
2023-04-12T22:44:07.751Z,92.09
2023-04-12T22:46:39.175Z,91.78
2023-04-12T22:49:08.264Z,91.25
2023-04-12T22:51:35.813Z,91.80
2023-04-12T22:54:06.124Z,90.84
2023-04-12T22:56:34.419Z,91.71
2023-04-12T22:59:01.971Z,86.17
2023-04-12T23:01:29.660Z,86.22
2023-04-12T23:04:00.426Z,86.29
2023-04-12T23:06:29.796Z,86.04
2023-04-12T23:08:57.432Z,82.78
2023-04-12T23:11:25.153Z,83.27
2023-04-12T23:13:53.687Z,84.49
2023-04-12T23:16:22.206Z,80.82
2023-04-12T23:18:49.873Z,78.61
2023-04-12T23:21:17.470Z,78.04
2023-04-12T23:23:46.408Z,78.25
2023-04-12T23:26:14.045Z,77.41
2023-04-12T23:28:41.956Z,75.87
2023-04-12T23:31:09.711Z,77.00
2023-04-12T23:33:38.639Z,76.43
2023-04-12T23:36:06.941Z,74.74
2023-04-12T23:38:34.633Z,73.38
2023-04-12T23:41:04.894Z,74.19
2023-04-12T23:43:34.216Z,73.21
2023-04-12T23:46:03.037Z,71.98
2023-04-12T23:48:32.102Z,70.77
2023-04-12T23:51:00.502Z,71.75
2023-04-12T23:53:28.138Z,71.77
2023-04-12T23:55:55.932Z,71.33
2023-04-12T23:58:25.384Z,70.82
